createdAt,value
2023-03-26T00:01:15.742Z,99.90
2023-03-26T00:03:45.095Z,99.90
2023-03-26T00:06:14.352Z,99.90
2023-03-26T00:08:42.830Z,99.90
2023-03-26T00:11:11.508Z,99.90
2023-03-26T00:13:38.450Z,99.90
2023-03-26T00:16:05.696Z,99.90
2023-03-26T00:18:34.844Z,99.90
2023-03-26T00:21:03.784Z,99.90
2023-03-26T00:23:31.700Z,99.90
2023-03-26T00:25:58.637Z,99.90
2023-03-26T00:28:26.273Z,99.90
2023-03-26T00:31:05.155Z,99.90
2023-03-26T00:33:32.194Z,99.90
2023-03-26T00:36:03.152Z,99.90
2023-03-26T00:38:31.218Z,99.90
2023-03-26T00:41:05.871Z,99.90
2023-03-26T00:43:35.341Z,99.90
2023-03-26T00:46:02.991Z,99.90
2023-03-26T00:48:44.117Z,99.90
2023-03-26T00:51:12.639Z,99.90
2023-03-26T00:53:41.198Z,99.90
2023-03-26T00:56:09.099Z,99.90
2023-03-26T00:58:37.044Z,99.90
2023-03-26T01:01:07.787Z,99.90
2023-03-26T01:03:36.684Z,99.90
2023-03-26T01:06:08.147Z,99.90
2023-03-26T01:08:39.189Z,99.90
2023-03-26T01:11:18.492Z,99.90
2023-03-26T01:13:49.478Z,99.90
2023-03-26T01:16:22.364Z,99.90
2023-03-26T01:18:49.748Z,99.90
2023-03-26T01:21:23.438Z,99.90
2023-03-26T01:23:59.687Z,99.90
2023-03-26T01:26:41.303Z,99.90
2023-03-26T01:29:19.418Z,99.90
2023-03-26T01:32:16.638Z,99.90
2023-03-26T01:35:14.014Z,99.90
2023-03-26T01:38:11.993Z,99.90
2023-03-26T01:40:57.083Z,99.90
2023-03-26T01:43:43.497Z,99.90
2023-03-26T01:46:13.089Z,99.90
2023-03-26T01:48:42.469Z,99.90
2023-03-26T01:51:10.834Z,99.90
2023-03-26T01:53:47.107Z,99.90
2023-03-26T01:56:34.157Z,99.90
2023-03-26T01:59:07.299Z,99.90
2023-03-26T02:02:19.060Z,99.90
2023-03-26T02:05:02.050Z,99.90
2023-03-26T02:07:38.612Z,99.90
2023-03-26T02:10:13.709Z,99.90
2023-03-26T02:12:42.763Z,99.90
2023-03-26T02:15:11.076Z,99.90
2023-03-26T02:17:40.512Z,99.90
2023-03-26T02:20:10.476Z,99.90
2023-03-26T02:22:40.943Z,99.90
2023-03-26T02:25:11.258Z,99.90
2023-03-26T02:27:39.109Z,99.90
2023-03-26T02:30:12.991Z,99.90
2023-03-26T02:32:39.883Z,99.90
2023-03-26T02:35:07.262Z,99.90
2023-03-26T02:37:34.607Z,99.90
2023-03-26T02:40:11.631Z,99.90
2023-03-26T02:42:41.166Z,99.90
2023-03-26T02:45:08.608Z,99.90
2023-03-26T02:47:53.809Z,99.90
2023-03-26T02:50:39.290Z,99.90
2023-03-26T02:53:29.857Z,99.90
2023-03-26T02:56:14.558Z,99.90
2023-03-26T02:58:52.661Z,99.90
2023-03-26T03:01:19.484Z,99.90
2023-03-26T03:03:51.228Z,99.90
2023-03-26T03:06:33.507Z,99.90
2023-03-26T03:09:02.638Z,99.90
2023-03-26T03:11:35.858Z,99.90
2023-03-26T03:14:03.334Z,99.90
2023-03-26T03:16:31.932Z,99.90
2023-03-26T03:19:13.229Z,99.90
2023-03-26T03:21:41.519Z,99.90
2023-03-26T03:24:09.437Z,99.90
2023-03-26T03:26:41.212Z,99.90
2023-03-26T03:29:46.443Z,99.90
2023-03-26T03:32:45.010Z,99.90
2023-03-26T03:35:13.852Z,99.90
2023-03-26T03:37:43.634Z,99.90
2023-03-26T03:40:11.295Z,99.90
2023-03-26T03:42:39.173Z,99.90
2023-03-26T03:45:07.728Z,99.90
2023-03-26T03:47:46.520Z,99.90
2023-03-26T03:50:15.666Z,99.90
2023-03-26T03:52:55.958Z,99.90
2023-03-26T03:55:24.149Z,99.90
2023-03-26T03:57:54.541Z,99.90
2023-03-26T04:00:24.241Z,99.90
2023-03-26T04:03:14.241Z,99.90
2023-03-26T04:05:41.214Z,99.90
2023-03-26T04:08:08.152Z,99.90
2023-03-26T04:10:44.350Z,99.90
2023-03-26T04:13:17.261Z,99.90
2023-03-26T04:15:53.100Z,99.90
2023-03-26T04:18:20.317Z,99.90
2023-03-26T04:20:47.659Z,99.90
2023-03-26T04:23:21.140Z,99.90
2023-03-26T04:25:55.600Z,99.90
2023-03-26T04:28:43.606Z,99.90
2023-03-26T04:31:28.956Z,99.90
2023-03-26T04:34:06.400Z,99.90
2023-03-26T04:36:40.608Z,99.90
2023-03-26T04:39:07.324Z,99.90
2023-03-26T04:42:00.507Z,99.90
2023-03-26T04:44:34.882Z,99.90
2023-03-26T04:47:06.068Z,99.90
2023-03-26T04:49:44.342Z,99.90
2023-03-26T04:52:15.571Z,99.90
2023-03-26T04:54:57.410Z,99.90
2023-03-26T04:57:46.080Z,99.90
2023-03-26T05:00:23.789Z,99.90
2023-03-26T05:02:57.644Z,99.90
2023-03-26T05:05:26.406Z,99.90
2023-03-26T05:07:53.942Z,99.90
2023-03-26T05:10:22.255Z,99.90
2023-03-26T05:12:53.112Z,99.90
2023-03-26T05:15:23.814Z,99.90
2023-03-26T05:18:08.654Z,99.90
2023-03-26T05:20:43.905Z,99.90
2023-03-26T05:23:11.556Z,99.90
2023-03-26T05:25:44.460Z,99.90
2023-03-26T05:28:23.264Z,99.90
2023-03-26T05:30:56.884Z,99.90
2023-03-26T05:33:27.266Z,99.90
2023-03-26T05:36:03.506Z,99.90
2023-03-26T05:38:32.031Z,99.90
2023-03-26T05:41:02.698Z,99.90
2023-03-26T05:43:30.902Z,99.90
2023-03-26T05:46:06.953Z,99.90
2023-03-26T05:48:34.014Z,99.90
2023-03-26T05:51:01.525Z,99.90
2023-03-26T05:53:31.062Z,99.90
2023-03-26T05:56:16.343Z,99.90
2023-03-26T05:59:01.849Z,99.90
2023-03-26T06:01:59.750Z,99.90
2023-03-26T06:04:45.800Z,99.90
2023-03-26T06:07:41.712Z,99.90
2023-03-26T06:10:18.082Z,99.90
2023-03-26T06:12:46.164Z,99.90
2023-03-26T06:15:13.134Z,99.90
2023-03-26T06:17:49.107Z,99.90
2023-03-26T06:20:41.890Z,99.90
2023-03-26T06:23:18.705Z,99.90
2023-03-26T06:26:05.814Z,99.90
2023-03-26T06:28:46.858Z,99.90
2023-03-26T06:31:45.855Z,99.90
2023-03-26T06:34:21.832Z,99.90
2023-03-26T06:36:49.032Z,99.90
2023-03-26T06:39:16.127Z,99.90
2023-03-26T06:41:52.192Z,99.90
2023-03-26T06:44:38.380Z,99.90
2023-03-26T06:47:31.306Z,99.90
2023-03-26T06:50:20.922Z,99.90
2023-03-26T06:52:59.995Z,99.90
2023-03-26T06:55:54.299Z,99.90
2023-03-26T06:58:39.525Z,99.90
2023-03-26T07:01:26.533Z,99.90
2023-03-26T07:04:11.903Z,99.90
2023-03-26T07:07:01.894Z,99.90
2023-03-26T07:09:47.999Z,99.90
2023-03-26T07:12:33.040Z,99.90
2023-03-26T07:15:19.715Z,99.90
2023-03-26T07:18:12.636Z,99.90
2023-03-26T07:20:42.403Z,99.90
2023-03-26T07:23:11.996Z,99.90
2023-03-26T07:25:53.637Z,99.90
2023-03-26T07:29:04.429Z,99.90
2023-03-26T07:32:08.872Z,99.90
2023-03-26T07:35:20.936Z,99.90
2023-03-26T07:38:27.787Z,99.90
2023-03-26T07:41:26.174Z,99.90
2023-03-26T07:44:45.719Z,99.90
2023-03-26T07:47:34.813Z,99.90
2023-03-26T07:50:19.856Z,99.90
2023-03-26T07:52:59.677Z,99.90
2023-03-26T07:55:31.958Z,1.00
2023-03-26T07:58:32.846Z,1.00
2023-03-26T08:01:42.956Z,99.90
2023-03-26T08:04:36.676Z,99.90
2023-03-26T08:07:50.712Z,99.90
2023-03-26T08:10:34.640Z,1.00
2023-03-26T08:13:37.616Z,99.90
2023-03-26T08:16:23.682Z,99.90
2023-03-26T08:19:28.662Z,99.90
2023-03-26T08:22:12.161Z,99.90
2023-03-26T08:24:43.517Z,99.90
2023-03-26T08:27:23.474Z,99.90
2023-03-26T08:30:02.788Z,99.90
2023-03-26T08:32:29.871Z,99.90
2023-03-26T08:34:57.573Z,99.90
2023-03-26T08:37:24.366Z,99.90
2023-03-26T08:39:51.135Z,99.90
2023-03-26T08:43:04.433Z,99.90
2023-03-26T08:46:03.243Z,99.90
2023-03-26T08:49:08.766Z,99.90
2023-03-26T08:52:13.434Z,99.90
2023-03-26T08:55:04.227Z,99.90
2023-03-26T08:58:09.821Z,99.90
2023-03-26T09:01:08.941Z,99.90
2023-03-26T09:03:45.360Z,99.90
2023-03-26T09:06:28.348Z,99.90
2023-03-26T09:09:19.222Z,99.90
2023-03-26T09:12:07.598Z,99.90
2023-03-26T09:14:37.799Z,99.90
2023-03-26T09:17:26.045Z,99.90
2023-03-26T09:20:08.788Z,99.90
2023-03-26T09:22:57.289Z,99.90
2023-03-26T09:26:01.511Z,99.90
2023-03-26T09:31:27.265Z,99.90
2023-03-26T09:34:13.424Z,99.90
2023-03-26T09:37:07.555Z,99.90
2023-03-26T09:39:53.224Z,99.90
2023-03-26T09:42:41.589Z,99.90
2023-03-26T09:45:36.401Z,99.90
2023-03-26T09:48:36.660Z,99.90
2023-03-26T09:51:19.602Z,99.90
2023-03-26T09:54:07.832Z,99.90
2023-03-26T09:56:51.281Z,99.90
2023-03-26T09:59:46.845Z,99.90
2023-03-26T10:02:22.561Z,99.90
2023-03-26T10:05:34.194Z,99.90
2023-03-26T10:08:33.984Z,99.90
2023-03-26T10:11:14.503Z,99.90
2023-03-26T10:14:04.380Z,99.90
2023-03-26T10:16:38.495Z,99.90
2023-03-26T10:19:55.773Z,99.90
2023-03-26T10:22:38.486Z,99.90
2023-03-26T10:25:29.012Z,99.90
2023-03-26T10:28:08.636Z,99.90
2023-03-26T10:31:06.494Z,99.90
2023-03-26T10:33:56.565Z,99.90
2023-03-26T10:36:41.291Z,99.90
2023-03-26T10:39:37.236Z,99.90
2023-03-26T10:42:11.158Z,99.90
2023-03-26T10:45:16.373Z,99.90
2023-03-26T10:48:13.941Z,99.90
2023-03-26T10:50:56.136Z,99.90
2023-03-26T10:53:36.408Z,99.90
2023-03-26T10:56:13.884Z,99.90
2023-03-26T10:58:48.508Z,99.90
2023-03-26T11:01:35.263Z,99.90
2023-03-26T11:04:43.860Z,99.90
2023-03-26T11:07:40.291Z,98.40
2023-03-26T11:10:07.091Z,99.90
2023-03-26T11:12:40.915Z,99.90
2023-03-26T11:15:15.109Z,98.60
2023-03-26T11:17:53.406Z,92.40
2023-03-26T11:20:38.680Z,91.00
2023-03-26T11:23:20.372Z,94.70
2023-03-26T11:26:18.986Z,92.30
2023-03-26T11:29:32.217Z,91.70
2023-03-26T11:32:17.439Z,95.00
2023-03-26T11:34:51.653Z,98.00
2023-03-26T11:37:34.379Z,92.80
2023-03-26T11:40:06.584Z,90.00
2023-03-26T11:42:34.325Z,89.50
2023-03-26T11:45:04.611Z,80.00
2023-03-26T11:47:46.098Z,80.40
2023-03-26T11:50:20.754Z,69.80
2023-03-26T11:52:49.600Z,74.00
2023-03-26T11:55:16.848Z,73.70
2023-03-26T11:57:51.662Z,71.60
2023-03-26T12:00:26.101Z,70.70
2023-03-26T12:02:58.061Z,76.00
2023-03-26T12:05:36.713Z,74.20
2023-03-26T12:08:17.505Z,59.10
2023-03-26T12:10:58.247Z,65.50
2023-03-26T12:13:39.327Z,55.30
2023-03-26T12:16:16.188Z,62.20
2023-03-26T12:18:45.704Z,62.40
2023-03-26T12:21:21.901Z,61.30
2023-03-26T12:24:02.098Z,59.50
2023-03-26T12:26:46.451Z,56.60
2023-03-26T12:29:16.489Z,55.30
2023-03-26T12:31:57.474Z,60.60
2023-03-26T12:34:35.106Z,44.10
2023-03-26T12:37:04.072Z,42.60
2023-03-26T12:40:08.988Z,44.70
2023-03-26T12:44:50.407Z,46.30
2023-03-26T12:45:27.779Z,47.00
2023-03-26T12:48:03.043Z,40.50
2023-03-26T12:50:48.696Z,37.80
2023-03-26T12:53:40.174Z,46.40
2023-03-26T12:56:13.344Z,41.30
2023-03-26T12:58:58.093Z,45.40
2023-03-26T13:01:40.225Z,51.90
2023-03-26T13:04:07.058Z,50.90
2023-03-26T13:06:59.803Z,47.10
2023-03-26T13:09:43.291Z,50.30
2023-03-26T13:12:25.667Z,53.40
2023-03-26T13:15:24.995Z,55.50
2023-03-26T13:18:25.911Z,52.80
2023-03-26T13:21:04.551Z,54.00
2023-03-26T13:23:51.393Z,51.80
2023-03-26T13:26:41.942Z,53.90
2023-03-26T13:29:20.326Z,53.20
2023-03-26T13:32:18.317Z,56.20
2023-03-26T13:35:06.592Z,57.20
2023-03-26T13:37:59.645Z,59.30
2023-03-26T13:40:44.471Z,85.50
2023-03-26T13:43:33.032Z,56.20
2023-03-26T13:46:30.834Z,62.00
2023-03-26T13:48:59.749Z,66.80
2023-03-26T13:51:54.785Z,67.30
2023-03-26T13:54:37.064Z,64.20
2023-03-26T13:57:29.329Z,71.60
2023-03-26T14:00:13.100Z,66.90
2023-03-26T14:02:43.027Z,62.50
2023-03-26T14:05:24.787Z,60.70
2023-03-26T14:08:24.203Z,61.20
2023-03-26T14:11:01.838Z,60.40
2023-03-26T14:13:49.610Z,72.60
2023-03-26T14:16:27.827Z,57.80
2023-03-26T14:19:20.594Z,59.90
2023-03-26T14:22:03.598Z,64.40
2023-03-26T14:25:08.257Z,58.00
2023-03-26T14:27:59.531Z,58.70
2023-03-26T14:30:56.445Z,55.40
2023-03-26T14:33:59.579Z,51.30
2023-03-26T14:36:55.217Z,52.40
2023-03-26T14:39:29.510Z,48.00
2023-03-26T14:42:01.898Z,47.90
2023-03-26T14:44:47.866Z,44.60
2023-03-26T14:47:23.710Z,46.20
2023-03-26T14:50:20.338Z,44.00
2023-03-26T14:53:01.235Z,44.50
2023-03-26T14:55:48.572Z,43.50
2023-03-26T14:58:43.512Z,38.10
2023-03-26T15:01:40.143Z,36.20
2023-03-26T15:04:28.885Z,37.20
2023-03-26T15:07:06.649Z,34.20
2023-03-26T15:10:07.449Z,36.60
2023-03-26T15:13:12.544Z,35.00
2023-03-26T15:16:00.624Z,38.60
2023-03-26T15:18:45.723Z,33.40
2023-03-26T15:21:37.719Z,34.80
2023-03-26T15:24:23.518Z,31.50
2023-03-26T15:27:11.741Z,35.30
2023-03-26T15:30:16.053Z,31.00
2023-03-26T15:33:14.553Z,27.00
2023-03-26T15:36:03.376Z,32.50
2023-03-26T15:38:57.607Z,26.00
2023-03-26T15:42:09.268Z,26.30
2023-03-26T15:44:47.213Z,24.80
2023-03-26T15:47:58.372Z,21.20
2023-03-26T15:50:49.675Z,22.70
2023-03-26T15:53:34.077Z,21.10
2023-03-26T15:56:17.713Z,21.50
2023-03-26T15:59:23.353Z,17.70
2023-03-26T16:02:23.932Z,16.70
2023-03-26T16:04:55.735Z,15.30
2023-03-26T16:07:38.922Z,13.40
2023-03-26T16:10:20.816Z,9.40
2023-03-26T16:12:59.946Z,12.20
2023-03-26T16:15:32.049Z,12.00
2023-03-26T16:18:11.810Z,10.80
2023-03-26T16:21:11.404Z,9.00
2023-03-26T16:24:07.235Z,9.10
2023-03-26T16:26:42.872Z,7.80
2023-03-26T16:29:18.329Z,7.80
2023-03-26T16:32:09.829Z,7.10
2023-03-26T16:35:22.435Z,7.30
2023-03-26T16:38:10.570Z,4.00
2023-03-26T16:40:50.740Z,4.50
2023-03-26T16:43:49.358Z,1.80
2023-03-26T16:46:43.367Z,1.00
2023-03-26T16:49:23.071Z,1.00
2023-03-26T16:52:23.110Z,1.00
2023-03-26T16:55:11.135Z,1.00
2023-03-26T16:57:48.331Z,1.00
2023-03-26T17:00:39.879Z,1.00
2023-03-26T17:03:17.630Z,1.00
2023-03-26T17:06:01.989Z,1.00
2023-03-26T17:08:41.954Z,1.00
2023-03-26T17:11:20.464Z,1.00
2023-03-26T17:14:28.166Z,1.00
2023-03-26T17:17:08.377Z,1.00
2023-03-26T17:19:54.599Z,1.00
2023-03-26T17:22:37.355Z,1.00
2023-03-26T17:25:33.563Z,1.00
2023-03-26T17:28:35.326Z,1.00
2023-03-26T17:31:39.423Z,1.00
2023-03-26T17:34:32.258Z,1.00
2023-03-26T17:36:59.901Z,1.00
2023-03-26T17:39:38.906Z,1.00
2023-03-26T17:42:25.788Z,1.00
2023-03-26T17:44:55.649Z,1.00
2023-03-26T17:47:59.992Z,1.00
2023-03-26T17:50:33.348Z,1.00
2023-03-26T17:53:20.934Z,1.00
2023-03-26T17:55:50.110Z,1.00
2023-03-26T17:58:33.633Z,1.00
2023-03-26T18:01:14.206Z,1.00
2023-03-26T18:03:50.072Z,1.00
2023-03-26T18:06:32.360Z,1.00
2023-03-26T18:09:13.626Z,1.00
2023-03-26T18:11:56.982Z,1.00
2023-03-26T18:14:52.498Z,1.00
2023-03-26T18:17:19.317Z,1.00
2023-03-26T18:19:52.255Z,1.00
2023-03-26T18:22:28.272Z,1.00
2023-03-26T18:24:59.668Z,1.00
2023-03-26T18:27:35.393Z,1.00
2023-03-26T18:30:17.591Z,1.00
2023-03-26T18:33:11.849Z,1.00
2023-03-26T18:35:43.633Z,1.00
2023-03-26T18:38:19.251Z,1.00
2023-03-26T18:41:03.571Z,1.00
2023-03-26T18:43:35.092Z,1.00
2023-03-26T18:46:04.011Z,1.00
2023-03-26T18:48:30.976Z,1.00
2023-03-26T18:51:05.626Z,1.00
2023-03-26T18:53:40.508Z,1.00
2023-03-26T18:56:41.430Z,1.00
2023-03-26T18:59:29.214Z,1.00
2023-03-26T19:01:57.661Z,1.00
2023-03-26T19:04:30.911Z,1.00
2023-03-26T19:06:57.982Z,1.00
2023-03-26T19:09:31.992Z,1.00
2023-03-26T19:12:09.239Z,1.00
2023-03-26T19:15:11.329Z,1.00
2023-03-26T19:18:07.150Z,1.00
2023-03-26T19:20:49.917Z,1.00
2023-03-26T19:23:19.893Z,1.00
2023-03-26T19:25:49.836Z,1.00
2023-03-26T19:28:31.950Z,1.00
2023-03-26T19:31:10.217Z,1.00
2023-03-26T19:33:40.722Z,1.00
2023-03-26T19:36:13.664Z,1.00
2023-03-26T19:38:48.491Z,1.00
2023-03-26T19:41:26.483Z,1.00
2023-03-26T19:43:55.883Z,1.00
2023-03-26T19:46:23.827Z,1.00
2023-03-26T19:48:53.276Z,1.00
2023-03-26T19:51:23.147Z,1.00
2023-03-26T19:53:55.414Z,1.00
2023-03-26T19:56:22.728Z,1.00
2023-03-26T19:58:50.192Z,1.00
2023-03-26T20:01:21.261Z,1.00
2023-03-26T20:03:51.579Z,1.00
2023-03-26T20:06:23.691Z,1.00
2023-03-26T20:08:55.659Z,1.00
2023-03-26T20:11:34.367Z,1.00
2023-03-26T20:14:01.670Z,1.00
2023-03-26T20:16:33.440Z,1.00
2023-03-26T20:19:04.220Z,1.00
2023-03-26T20:21:32.356Z,1.00
2023-03-26T20:23:59.315Z,1.00
2023-03-26T20:26:25.997Z,1.00
2023-03-26T20:28:53.889Z,1.00
2023-03-26T20:31:26.173Z,1.00
2023-03-26T20:33:54.124Z,1.00
2023-03-26T20:36:33.648Z,1.00
2023-03-26T20:39:08.505Z,1.00
2023-03-26T20:41:40.093Z,1.00
2023-03-26T20:44:16.017Z,1.00
2023-03-26T20:46:44.137Z,1.00
2023-03-26T20:49:11.480Z,1.00
2023-03-26T20:51:39.312Z,1.00
2023-03-26T20:54:06.359Z,1.00
2023-03-26T20:56:37.449Z,1.00
2023-03-26T20:59:10.918Z,1.00
2023-03-26T21:01:38.582Z,1.00
2023-03-26T21:04:06.384Z,1.00
2023-03-26T21:06:33.352Z,1.00
2023-03-26T21:09:00.581Z,1.00
2023-03-26T21:11:55.832Z,1.00
2023-03-26T21:14:25.719Z,1.00
2023-03-26T21:16:52.932Z,1.00
2023-03-26T21:19:20.210Z,1.00
2023-03-26T21:22:01.048Z,1.00
2023-03-26T21:24:58.281Z,1.00
2023-03-26T21:27:37.214Z,1.00
2023-03-26T21:30:11.043Z,1.00
2023-03-26T21:32:38.093Z,1.00
2023-03-26T21:35:05.523Z,1.00
2023-03-26T21:37:32.901Z,1.00
2023-03-26T21:40:01.593Z,1.00
2023-03-26T21:42:29.220Z,1.00
2023-03-26T21:44:56.111Z,1.00
2023-03-26T21:47:23.068Z,1.00
2023-03-26T21:49:49.867Z,1.00
2023-03-26T21:52:16.760Z,1.00
2023-03-26T21:54:43.823Z,1.00
2023-03-26T21:57:18.947Z,1.00
2023-03-26T21:59:51.755Z,1.00
2023-03-26T22:02:37.055Z,1.00
2023-03-26T22:05:26.501Z,1.00
2023-03-26T22:08:02.227Z,1.00
2023-03-26T22:10:30.060Z,1.00
2023-03-26T22:12:57.559Z,1.00
2023-03-26T22:15:30.332Z,1.00
2023-03-26T22:18:01.996Z,1.00
2023-03-26T22:20:29.107Z,1.00
2023-03-26T22:22:55.870Z,1.00
2023-03-26T22:25:23.858Z,1.00
2023-03-26T22:27:51.164Z,1.00
2023-03-26T22:30:18.767Z,1.00
2023-03-26T22:32:45.560Z,1.00
2023-03-26T22:35:12.920Z,1.00
2023-03-26T22:37:40.428Z,1.00
2023-03-26T22:40:08.699Z,1.00
2023-03-26T22:42:36.142Z,1.00
2023-03-26T22:45:04.060Z,1.00
2023-03-26T22:47:33.586Z,1.00
2023-03-26T22:50:00.615Z,1.00
2023-03-26T22:52:27.824Z,1.00
2023-03-26T22:54:54.599Z,1.00
2023-03-26T22:57:24.278Z,1.00
2023-03-26T22:59:51.905Z,1.00
2023-03-26T23:02:19.466Z,1.00
2023-03-26T23:04:47.777Z,1.00
2023-03-26T23:07:14.910Z,1.00
2023-03-26T23:09:41.689Z,1.00
2023-03-26T23:12:08.422Z,1.00
2023-03-26T23:14:36.176Z,2.70
2023-03-26T23:17:03.751Z,1.40
2023-03-26T23:19:30.545Z,1.60
2023-03-26T23:21:57.278Z,1.80
2023-03-26T23:24:26.359Z,1.00
2023-03-26T23:26:53.266Z,1.00
2023-03-26T23:29:20.354Z,3.10
2023-03-26T23:31:47.415Z,2.60
2023-03-26T23:34:15.212Z,2.50
2023-03-26T23:36:42.390Z,2.60
2023-03-26T23:39:09.290Z,1.00
2023-03-26T23:41:36.723Z,3.10
2023-03-26T23:44:04.090Z,5.60
2023-03-26T23:46:33.018Z,3.90
2023-03-26T23:49:02.143Z,4.60
2023-03-26T23:51:30.194Z,5.00
2023-03-26T23:53:57.816Z,3.00
2023-03-26T23:56:24.583Z,2.00
2023-03-26T23:58:51.298Z,1.40
